sensor_id;sensor_type;location;lat;lon;timestamp;temperature;humidity
20418;DHT22;10368;51.436;6.774;2023-10-09T00:00:58;14.60;99.90
20418;DHT22;10368;51.436;6.774;2023-10-09T00:03:30;14.60;99.90
20418;DHT22;10368;51.436;6.774;2023-10-09T00:05:58;14.70;99.90
20418;DHT22;10368;51.436;6.774;2023-10-09T00:08:25;14.70;99.90
20418;DHT22;10368;51.436;6.774;2023-10-09T00:11:00;14.70;99.90
20418;DHT22;10368;51.436;6.774;2023-10-09T00:13:45;14.70;99.90
20418;DHT22;10368;51.436;6.774;2023-10-09T00:16:25;14.80;99.90
20418;DHT22;10368;51.436;6.774;2023-10-09T00:19:04;14.80;99.90
20418;DHT22;10368;51.436;6.774;2023-10-09T00:21:48;14.80;99.90
20418;DHT22;10368;51.436;6.774;2023-10-09T00:24:17;14.80;99.90
20418;DHT22;10368;51.436;6.774;2023-10-09T00:26:52;14.80;99.90
20418;DHT22;10368;51.436;6.774;2023-10-09T00:29:22;14.80;99.90
20418;DHT22;10368;51.436;6.774;2023-10-09T00:31:51;14.70;99.90
20418;DHT22;10368;51.436;6.774;2023-10-09T00:34:22;14.70;99.90
20418;DHT22;10368;51.436;6.774;2023-10-09T00:36:49;14.70;99.90
20418;DHT22;10368;51.436;6.774;2023-10-09T00:39:19;14.80;99.90
20418;DHT22;10368;51.436;6.774;2023-10-09T00:42:08;14.80;99.90
20418;DHT22;10368;51.436;6.774;2023-10-09T00:44:39;14.70;99.90
20418;DHT22;10368;51.436;6.774;2023-10-09T00:47:15;14.70;99.90
20418;DHT22;10368;51.436;6.774;2023-10-09T00:50:09;14.80;99.90
20418;DHT22;10368;51.436;6.774;2023-10-09T00:52:39;14.80;99.90
20418;DHT22;10368;51.436;6.774;2023-10-09T00:55:12;14.80;99.90
20418;DHT22;10368;51.436;6.774;2023-10-09T00:57:50;14.90;99.90
20418;DHT22;10368;51.436;6.774;2023-10-09T01:00:19;14.90;99.90
20418;DHT22;10368;51.436;6.774;2023-10-09T01:03:01;14.80;99.90
20418;DHT22;10368;51.436;6.774;2023-10-09T01:05:54;14.80;99.90
20418;DHT22;10368;51.436;6.774;2023-10-09T01:08:25;14.80;99.90
20418;DHT22;10368;51.436;6.774;2023-10-09T01:11:00;14.80;99.90
20418;DHT22;10368;51.436;6.774;2023-10-09T01:13:37;14.80;99.90
20418;DHT22;10368;51.436;6.774;2023-10-09T01:16:18;14.80;99.90
20418;DHT22;10368;51.436;6.774;2023-10-09T01:18:47;14.80;99.90
20418;DHT22;10368;51.436;6.774;2023-10-09T01:21:20;14.80;99.90
20418;DHT22;10368;51.436;6.774;2023-10-09T01:23:54;14.80;99.90
20418;DHT22;10368;51.436;6.774;2023-10-09T01:26:38;14.80;99.90
20418;DHT22;10368;51.436;6.774;2023-10-09T01:29:07;14.80;99.90
20418;DHT22;10368;51.436;6.774;2023-10-09T01:34:37;14.90;99.90
20418;DHT22;10368;51.436;6.774;2023-10-09T01:37:08;14.80;99.90
20418;DHT22;10368;51.436;6.774;2023-10-09T01:39:41;14.90;99.90
20418;DHT22;10368;51.436;6.774;2023-10-09T01:42:09;14.90;99.90
20418;DHT22;10368;51.436;6.774;2023-10-09T01:44:37;14.80;99.90
20418;DHT22;10368;51.436;6.774;2023-10-09T01:47:11;14.80;99.90
20418;DHT22;10368;51.436;6.774;2023-10-09T01:49:43;14.80;99.90
20418;DHT22;10368;51.436;6.774;2023-10-09T01:52:10;14.80;99.90
20418;DHT22;10368;51.436;6.774;2023-10-09T01:54:44;14.90;99.90
20418;DHT22;10368;51.436;6.774;2023-10-09T01:57:16;14.80;99.90
20418;DHT22;10368;51.436;6.774;2023-10-09T01:59:49;14.80;99.90
20418;DHT22;10368;51.436;6.774;2023-10-09T02:02:17;14.80;99.90
20418;DHT22;10368;51.436;6.774;2023-10-09T02:05:01;14.80;99.90
20418;DHT22;10368;51.436;6.774;2023-10-09T02:07:37;14.80;99.90
20418;DHT22;10368;51.436;6.774;2023-10-09T02:10:12;14.70;99.90
20418;DHT22;10368;51.436;6.774;2023-10-09T02:12:52;14.80;99.90
20418;DHT22;10368;51.436;6.774;2023-10-09T02:15:20;14.80;99.90
20418;DHT22;10368;51.436;6.774;2023-10-09T02:18:07;14.80;99.90
20418;DHT22;10368;51.436;6.774;2023-10-09T02:21:07;14.80;99.90
20418;DHT22;10368;51.436;6.774;2023-10-09T02:23:35;14.80;99.90
20418;DHT22;10368;51.436;6.774;2023-10-09T02:26:12;14.80;99.90
20418;DHT22;10368;51.436;6.774;2023-10-09T02:28:52;14.80;99.90
20418;DHT22;10368;51.436;6.774;2023-10-09T02:31:27;14.90;99.90
20418;DHT22;10368;51.436;6.774;2023-10-09T02:34:07;14.80;99.90
20418;DHT22;10368;51.436;6.774;2023-10-09T02:36:38;14.80;99.90
20418;DHT22;10368;51.436;6.774;2023-10-09T02:39:16;14.90;99.90
20418;DHT22;10368;51.436;6.774;2023-10-09T02:41:54;14.90;99.90
20418;DHT22;10368;51.436;6.774;2023-10-09T02:44:28;14.90;99.90
20418;DHT22;10368;51.436;6.774;2023-10-09T02:46:59;14.90;99.90
20418;DHT22;10368;51.436;6.774;2023-10-09T02:49:26;14.90;99.90
20418;DHT22;10368;51.436;6.774;2023-10-09T02:51:53;14.90;99.90
20418;DHT22;10368;51.436;6.774;2023-10-09T02:54:20;14.90;99.90
20418;DHT22;10368;51.436;6.774;2023-10-09T02:57:01;14.90;99.90
20418;DHT22;10368;51.436;6.774;2023-10-09T02:59:35;14.90;99.90
20418;DHT22;10368;51.436;6.774;2023-10-09T03:02:05;14.90;99.90
20418;DHT22;10368;51.436;6.774;2023-10-09T03:04:32;14.90;99.90
20418;DHT22;10368;51.436;6.774;2023-10-09T03:07:00;14.90;99.90
20418;DHT22;10368;51.436;6.774;2023-10-09T03:09:27;15.00;99.90
20418;DHT22;10368;51.436;6.774;2023-10-09T03:11:59;15.00;99.90
20418;DHT22;10368;51.436;6.774;2023-10-09T03:14:35;14.90;99.90
20418;DHT22;10368;51.436;6.774;2023-10-09T03:17:05;14.90;99.90
20418;DHT22;10368;51.436;6.774;2023-10-09T03:19:38;15.00;99.90
20418;DHT22;10368;51.436;6.774;2023-10-09T03:22:06;15.00;99.90
20418;DHT22;10368;51.436;6.774;2023-10-09T03:24:39;15.00;99.90
20418;DHT22;10368;51.436;6.774;2023-10-09T03:27:16;15.00;99.90
20418;DHT22;10368;51.436;6.774;2023-10-09T03:29:43;15.10;99.90
20418;DHT22;10368;51.436;6.774;2023-10-09T03:32:16;15.00;99.90
20418;DHT22;10368;51.436;6.774;2023-10-09T03:34:43;15.00;99.90
20418;DHT22;10368;51.436;6.774;2023-10-09T03:37:11;15.00;99.90
20418;DHT22;10368;51.436;6.774;2023-10-09T03:39:48;15.00;99.90
20418;DHT22;10368;51.436;6.774;2023-10-09T03:42:18;15.00;99.90
20418;DHT22;10368;51.436;6.774;2023-10-09T03:44:49;15.00;99.90
20418;DHT22;10368;51.436;6.774;2023-10-09T03:47:21;15.10;99.90
20418;DHT22;10368;51.436;6.774;2023-10-09T03:49:51;15.10;99.90
20418;DHT22;10368;51.436;6.774;2023-10-09T03:52:21;15.10;99.90
20418;DHT22;10368;51.436;6.774;2023-10-09T03:54:52;15.10;99.90
20418;DHT22;10368;51.436;6.774;2023-10-09T03:57:20;15.10;99.90
20418;DHT22;10368;51.436;6.774;2023-10-09T03:59:47;15.10;99.90
20418;DHT22;10368;51.436;6.774;2023-10-09T04:02:15;15.20;99.90
20418;DHT22;10368;51.436;6.774;2023-10-09T04:04:43;15.20;99.90
20418;DHT22;10368;51.436;6.774;2023-10-09T04:07:14;15.30;99.90
20418;DHT22;10368;51.436;6.774;2023-10-09T04:09:44;15.30;99.90
20418;DHT22;10368;51.436;6.774;2023-10-09T04:12:15;15.30;99.90
20418;DHT22;10368;51.436;6.774;2023-10-09T04:14:48;15.30;99.90
20418;DHT22;10368;51.436;6.774;2023-10-09T04:17:22;15.30;99.90
20418;DHT22;10368;51.436;6.774;2023-10-09T04:20:04;15.40;99.90
20418;DHT22;10368;51.436;6.774;2023-10-09T04:22:47;15.40;99.90
20418;DHT22;10368;51.436;6.774;2023-10-09T04:25:18;15.40;99.90
20418;DHT22;10368;51.436;6.774;2023-10-09T04:28:00;15.40;99.90
20418;DHT22;10368;51.436;6.774;2023-10-09T04:30:38;15.40;99.90
20418;DHT22;10368;51.436;6.774;2023-10-09T04:33:14;15.50;99.90
20418;DHT22;10368;51.436;6.774;2023-10-09T04:36:08;15.50;99.90
20418;DHT22;10368;51.436;6.774;2023-10-09T04:38:49;15.50;99.90
20418;DHT22;10368;51.436;6.774;2023-10-09T04:41:33;15.50;99.90
20418;DHT22;10368;51.436;6.774;2023-10-09T04:44:09;15.50;99.90
20418;DHT22;10368;51.436;6.774;2023-10-09T04:47:02;15.50;99.90
20418;DHT22;10368;51.436;6.774;2023-10-09T04:49:39;15.50;99.90
20418;DHT22;10368;51.436;6.774;2023-10-09T04:52:33;15.50;99.90
20418;DHT22;10368;51.436;6.774;2023-10-09T04:55:00;15.60;99.90
20418;DHT22;10368;51.436;6.774;2023-10-09T04:57:37;15.60;99.90
20418;DHT22;10368;51.436;6.774;2023-10-09T05:00:08;15.60;99.90
20418;DHT22;10368;51.436;6.774;2023-10-09T05:02:58;15.60;99.90
20418;DHT22;10368;51.436;6.774;2023-10-09T05:05:29;15.60;99.90
20418;DHT22;10368;51.436;6.774;2023-10-09T05:08:13;15.60;99.90
20418;DHT22;10368;51.436;6.774;2023-10-09T05:10:51;15.60;99.90
20418;DHT22;10368;51.436;6.774;2023-10-09T05:13:29;15.70;99.90
20418;DHT22;10368;51.436;6.774;2023-10-09T05:16:16;15.70;99.90
20418;DHT22;10368;51.436;6.774;2023-10-09T05:18:48;15.70;99.90
20418;DHT22;10368;51.436;6.774;2023-10-09T05:21:30;15.70;99.90
20418;DHT22;10368;51.436;6.774;2023-10-09T05:23:59;15.70;99.90
20418;DHT22;10368;51.436;6.774;2023-10-09T05:26:48;15.80;99.90
20418;DHT22;10368;51.436;6.774;2023-10-09T05:29:20;15.80;99.90
20418;DHT22;10368;51.436;6.774;2023-10-09T05:32:01;15.80;99.90
20418;DHT22;10368;51.436;6.774;2023-10-09T05:34:46;15.80;99.90
20418;DHT22;10368;51.436;6.774;2023-10-09T05:37:27;15.90;99.90
20418;DHT22;10368;51.436;6.774;2023-10-09T05:40:04;15.90;99.90
20418;DHT22;10368;51.436;6.774;2023-10-09T05:42:44;15.90;99.90
20418;DHT22;10368;51.436;6.774;2023-10-09T05:45:13;15.80;99.90
20418;DHT22;10368;51.436;6.774;2023-10-09T05:47:59;15.90;99.90
20418;DHT22;10368;51.436;6.774;2023-10-09T05:50:27;15.80;99.90
20418;DHT22;10368;51.436;6.774;2023-10-09T05:52:57;15.80;99.90
20418;DHT22;10368;51.436;6.774;2023-10-09T05:55:33;15.90;99.90
20418;DHT22;10368;51.436;6.774;2023-10-09T05:58:18;16.00;99.90
20418;DHT22;10368;51.436;6.774;2023-10-09T06:01:04;16.00;99.90
20418;DHT22;10368;51.436;6.774;2023-10-09T06:03:49;16.00;99.90
20418;DHT22;10368;51.436;6.774;2023-10-09T06:06:22;15.90;99.90
20418;DHT22;10368;51.436;6.774;2023-10-09T06:09:02;16.00;99.90
20418;DHT22;10368;51.436;6.774;2023-10-09T06:11:46;15.90;99.90
20418;DHT22;10368;51.436;6.774;2023-10-09T06:14:17;16.00;99.90
20418;DHT22;10368;51.436;6.774;2023-10-09T06:16:53;16.00;99.90
20418;DHT22;10368;51.436;6.774;2023-10-09T06:19:20;16.10;99.90
20418;DHT22;10368;51.436;6.774;2023-10-09T06:21:50;16.10;99.90
20418;DHT22;10368;51.436;6.774;2023-10-09T06:24:20;16.10;99.90
20418;DHT22;10368;51.436;6.774;2023-10-09T06:26:50;16.10;99.90
20418;DHT22;10368;51.436;6.774;2023-10-09T06:29:27;16.10;99.90
20418;DHT22;10368;51.436;6.774;2023-10-09T06:32:12;16.20;99.90
20418;DHT22;10368;51.436;6.774;2023-10-09T06:34:50;16.10;99.90
20418;DHT22;10368;51.436;6.774;2023-10-09T06:37:24;16.10;99.90
20418;DHT22;10368;51.436;6.774;2023-10-09T06:39:51;16.10;99.90
20418;DHT22;10368;51.436;6.774;2023-10-09T06:42:25;16.10;99.90
20418;DHT22;10368;51.436;6.774;2023-10-09T06:45:21;16.00;99.90
20418;DHT22;10368;51.436;6.774;2023-10-09T06:47:55;16.10;99.90
20418;DHT22;10368;51.436;6.774;2023-10-09T06:50:37;16.00;99.90
20418;DHT22;10368;51.436;6.774;2023-10-09T06:53:22;16.10;99.90
20418;DHT22;10368;51.436;6.774;2023-10-09T06:55:55;16.10;99.90
20418;DHT22;10368;51.436;6.774;2023-10-09T06:58:43;16.10;99.90
20418;DHT22;10368;51.436;6.774;2023-10-09T07:01:14;16.10;99.90
20418;DHT22;10368;51.436;6.774;2023-10-09T07:03:52;16.10;99.90
20418;DHT22;10368;51.436;6.774;2023-10-09T07:06:21;16.10;99.90
20418;DHT22;10368;51.436;6.774;2023-10-09T07:08:56;16.10;99.90
20418;DHT22;10368;51.436;6.774;2023-10-09T07:11:51;16.20;99.90
20418;DHT22;10368;51.436;6.774;2023-10-09T07:14:20;16.20;99.90
20418;DHT22;10368;51.436;6.774;2023-10-09T07:17:04;16.20;99.90
20418;DHT22;10368;51.436;6.774;2023-10-09T07:19:43;16.30;99.90
20418;DHT22;10368;51.436;6.774;2023-10-09T07:22:12;16.30;99.90
20418;DHT22;10368;51.436;6.774;2023-10-09T07:24:49;16.30;99.90
20418;DHT22;10368;51.436;6.774;2023-10-09T07:27:20;16.30;99.90
20418;DHT22;10368;51.436;6.774;2023-10-09T07:30:08;16.30;99.90
20418;DHT22;10368;51.436;6.774;2023-10-09T07:33:04;16.30;99.90
20418;DHT22;10368;51.436;6.774;2023-10-09T07:35:47;16.40;99.90
20418;DHT22;10368;51.436;6.774;2023-10-09T07:38:22;16.40;99.90
20418;DHT22;10368;51.436;6.774;2023-10-09T07:40:51;16.40;99.90
20418;DHT22;10368;51.436;6.774;2023-10-09T07:43:36;16.40;99.90
20418;DHT22;10368;51.436;6.774;2023-10-09T07:46:16;16.50;99.90
20418;DHT22;10368;51.436;6.774;2023-10-09T07:49:04;16.50;99.90
20418;DHT22;10368;51.436;6.774;2023-10-09T07:51:40;16.50;99.90
20418;DHT22;10368;51.436;6.774;2023-10-09T07:54:13;16.60;99.90
20418;DHT22;10368;51.436;6.774;2023-10-09T07:56:59;16.60;99.90
20418;DHT22;10368;51.436;6.774;2023-10-09T07:59:44;16.60;99.90
20418;DHT22;10368;51.436;6.774;2023-10-09T08:02:39;16.60;99.90
20418;DHT22;10368;51.436;6.774;2023-10-09T08:05:07;16.60;99.90
20418;DHT22;10368;51.436;6.774;2023-10-09T08:07:46;16.60;99.90
20418;DHT22;10368;51.436;6.774;2023-10-09T08:10:45;16.70;99.90
20418;DHT22;10368;51.436;6.774;2023-10-09T08:13:30;16.70;99.90
20418;DHT22;10368;51.436;6.774;2023-10-09T08:16:16;16.80;99.90
20418;DHT22;10368;51.436;6.774;2023-10-09T08:18:54;16.80;99.90
20418;DHT22;10368;51.436;6.774;2023-10-09T08:21:24;16.90;99.90
20418;DHT22;10368;51.436;6.774;2023-10-09T08:24:09;16.90;99.90
20418;DHT22;10368;51.436;6.774;2023-10-09T08:26:56;16.90;99.90
20418;DHT22;10368;51.436;6.774;2023-10-09T08:29:43;17.00;99.90
20418;DHT22;10368;51.436;6.774;2023-10-09T08:32:14;17.00;99.90
20418;DHT22;10368;51.436;6.774;2023-10-09T08:35:08;16.90;99.90
20418;DHT22;10368;51.436;6.774;2023-10-09T08:37:55;16.90;99.90
20418;DHT22;10368;51.436;6.774;2023-10-09T08:40:32;16.90;99.90
20418;DHT22;10368;51.436;6.774;2023-10-09T08:43:14;16.90;99.90
20418;DHT22;10368;51.436;6.774;2023-10-09T08:45:47;16.80;99.90
20418;DHT22;10368;51.436;6.774;2023-10-09T08:48:14;16.80;99.90
20418;DHT22;10368;51.436;6.774;2023-10-09T08:50:54;16.80;99.90
20418;DHT22;10368;51.436;6.774;2023-10-09T08:53:23;16.90;99.90
20418;DHT22;10368;51.436;6.774;2023-10-09T08:55:53;16.90;99.90
20418;DHT22;10368;51.436;6.774;2023-10-09T08:58:24;16.90;99.90
20418;DHT22;10368;51.436;6.774;2023-10-09T09:01:04;16.90;99.90
20418;DHT22;10368;51.436;6.774;2023-10-09T09:03:41;17.00;99.90
20418;DHT22;10368;51.436;6.774;2023-10-09T09:06:12;17.10;99.90
20418;DHT22;10368;51.436;6.774;2023-10-09T09:08:43;17.20;99.90
20418;DHT22;10368;51.436;6.774;2023-10-09T09:11:17;17.30;99.90
20418;DHT22;10368;51.436;6.774;2023-10-09T09:16:35;17.40;99.90
20418;DHT22;10368;51.436;6.774;2023-10-09T09:19:07;17.60;99.90
20418;DHT22;10368;51.436;6.774;2023-10-09T09:21:39;17.70;99.90
20418;DHT22;10368;51.436;6.774;2023-10-09T09:24:09;17.80;99.90
20418;DHT22;10368;51.436;6.774;2023-10-09T09:27:02;17.90;99.90
20418;DHT22;10368;51.436;6.774;2023-10-09T09:30:01;17.80;99.90
20418;DHT22;10368;51.436;6.774;2023-10-09T09:32:50;17.90;99.90
20418;DHT22;10368;51.436;6.774;2023-10-09T09:35:36;17.90;99.90
20418;DHT22;10368;51.436;6.774;2023-10-09T09:38:03;17.80;99.90
20418;DHT22;10368;51.436;6.774;2023-10-09T09:40:33;17.80;99.90
20418;DHT22;10368;51.436;6.774;2023-10-09T09:43:08;17.80;99.90
20418;DHT22;10368;51.436;6.774;2023-10-09T09:45:44;17.90;99.90
20418;DHT22;10368;51.436;6.774;2023-10-09T09:48:16;17.90;99.90
20418;DHT22;10368;51.436;6.774;2023-10-09T09:50:43;18.00;99.90
20418;DHT22;10368;51.436;6.774;2023-10-09T09:53:14;18.00;99.90
20418;DHT22;10368;51.436;6.774;2023-10-09T09:55:54;17.90;99.90
20418;DHT22;10368;51.436;6.774;2023-10-09T09:58:26;18.00;99.90
20418;DHT22;10368;51.436;6.774;2023-10-09T10:01:03;18.00;99.90
20418;DHT22;10368;51.436;6.774;2023-10-09T10:04:11;18.10;99.90
20418;DHT22;10368;51.436;6.774;2023-10-09T10:06:43;18.20;99.90
20418;DHT22;10368;51.436;6.774;2023-10-09T10:09:35;18.20;99.90
20418;DHT22;10368;51.436;6.774;2023-10-09T10:12:08;18.20;99.90
20418;DHT22;10368;51.436;6.774;2023-10-09T10:17:23;18.30;99.90
20418;DHT22;10368;51.436;6.774;2023-10-09T10:22:27;18.40;99.90
20418;DHT22;10368;51.436;6.774;2023-10-09T10:24:58;18.40;99.90
20418;DHT22;10368;51.436;6.774;2023-10-09T10:27:33;18.50;99.90
20418;DHT22;10368;51.436;6.774;2023-10-09T10:35:22;18.40;99.90
20418;DHT22;10368;51.436;6.774;2023-10-09T10:38:30;18.50;99.90
20418;DHT22;10368;51.436;6.774;2023-10-09T10:43:40;18.60;99.90
20418;DHT22;10368;51.436;6.774;2023-10-09T10:46:21;18.40;99.90
20418;DHT22;10368;51.436;6.774;2023-10-09T10:49:07;18.50;99.90
20418;DHT22;10368;51.436;6.774;2023-10-09T10:52:03;18.60;99.90
20418;DHT22;10368;51.436;6.774;2023-10-09T10:54:47;18.60;99.90
20418;DHT22;10368;51.436;6.774;2023-10-09T10:57:21;18.70;99.90
20418;DHT22;10368;51.436;6.774;2023-10-09T10:59:57;18.80;99.90
20418;DHT22;10368;51.436;6.774;2023-10-09T11:02:43;18.80;99.90
20418;DHT22;10368;51.436;6.774;2023-10-09T11:05:10;18.80;99.90
20418;DHT22;10368;51.436;6.774;2023-10-09T11:07:57;19.10;99.90
20418;DHT22;10368;51.436;6.774;2023-10-09T11:10:24;19.20;99.90
20418;DHT22;10368;51.436;6.774;2023-10-09T11:12:56;19.30;99.90
20418;DHT22;10368;51.436;6.774;2023-10-09T11:15:36;19.40;99.90
20418;DHT22;10368;51.436;6.774;2023-10-09T11:18:15;19.80;99.90
20418;DHT22;10368;51.436;6.774;2023-10-09T11:20:57;19.80;99.90
20418;DHT22;10368;51.436;6.774;2023-10-09T11:23:24;19.90;99.90
20418;DHT22;10368;51.436;6.774;2023-10-09T11:26:01;19.80;99.90
20418;DHT22;10368;51.436;6.774;2023-10-09T11:31:59;19.80;99.90
20418;DHT22;10368;51.436;6.774;2023-10-09T11:34:28;19.90;99.90
20418;DHT22;10368;51.436;6.774;2023-10-09T11:39:39;19.90;99.90
20418;DHT22;10368;51.436;6.774;2023-10-09T11:42:28;20.10;99.90
20418;DHT22;10368;51.436;6.774;2023-10-09T11:47:52;20.00;99.90
20418;DHT22;10368;51.436;6.774;2023-10-09T11:50:46;20.20;99.90
20418;DHT22;10368;51.436;6.774;2023-10-09T11:53:16;20.10;99.90
20418;DHT22;10368;51.436;6.774;2023-10-09T11:56:01;20.30;99.90
20418;DHT22;10368;51.436;6.774;2023-10-09T11:58:28;20.40;99.90
20418;DHT22;10368;51.436;6.774;2023-10-09T12:00:59;20.40;99.90
20418;DHT22;10368;51.436;6.774;2023-10-09T12:03:43;20.30;99.90
20418;DHT22;10368;51.436;6.774;2023-10-09T12:06:17;20.30;99.90
20418;DHT22;10368;51.436;6.774;2023-10-09T12:08:46;20.20;99.90
20418;DHT22;10368;51.436;6.774;2023-10-09T12:11:17;20.30;99.90
20418;DHT22;10368;51.436;6.774;2023-10-09T12:13:56;20.30;99.90
20418;DHT22;10368;51.436;6.774;2023-10-09T12:16:25;20.10;99.90
20418;DHT22;10368;51.436;6.774;2023-10-09T12:18:56;20.00;99.90
20418;DHT22;10368;51.436;6.774;2023-10-09T12:21:23;20.00;99.90
20418;DHT22;10368;51.436;6.774;2023-10-09T12:23:50;20.20;99.90
20418;DHT22;10368;51.436;6.774;2023-10-09T12:26:17;20.30;99.90
20418;DHT22;10368;51.436;6.774;2023-10-09T12:28:45;20.30;99.90
20418;DHT22;10368;51.436;6.774;2023-10-09T12:31:17;20.20;99.90
20418;DHT22;10368;51.436;6.774;2023-10-09T12:33:47;20.20;99.90
20418;DHT22;10368;51.436;6.774;2023-10-09T12:36:16;20.20;99.90
20418;DHT22;10368;51.436;6.774;2023-10-09T12:38:47;20.50;99.90
20418;DHT22;10368;51.436;6.774;2023-10-09T12:41:20;20.60;99.90
20418;DHT22;10368;51.436;6.774;2023-10-09T12:43:55;20.60;99.90
20418;DHT22;10368;51.436;6.774;2023-10-09T12:46:28;20.50;99.90
20418;DHT22;10368;51.436;6.774;2023-10-09T12:49:00;20.70;99.90
20418;DHT22;10368;51.436;6.774;2023-10-09T12:51:29;20.50;99.90
20418;DHT22;10368;51.436;6.774;2023-10-09T12:53:59;20.60;99.90
20418;DHT22;10368;51.436;6.774;2023-10-09T12:56:28;20.70;99.90
20418;DHT22;10368;51.436;6.774;2023-10-09T12:59:05;20.90;99.90
20418;DHT22;10368;51.436;6.774;2023-10-09T13:01:32;20.90;99.90
20418;DHT22;10368;51.436;6.774;2023-10-09T13:03:59;20.90;99.90
20418;DHT22;10368;51.436;6.774;2023-10-09T13:06:26;20.90;99.90
20418;DHT22;10368;51.436;6.774;2023-10-09T13:08:54;20.80;99.90
20418;DHT22;10368;51.436;6.774;2023-10-09T13:11:26;20.50;99.90
20418;DHT22;10368;51.436;6.774;2023-10-09T13:13:53;20.70;99.90
20418;DHT22;10368;51.436;6.774;2023-10-09T13:16:21;20.90;99.90
20418;DHT22;10368;51.436;6.774;2023-10-09T13:18:58;20.60;99.90
20418;DHT22;10368;51.436;6.774;2023-10-09T13:21:27;20.60;99.90
20418;DHT22;10368;51.436;6.774;2023-10-09T13:23:58;20.90;99.90
20418;DHT22;10368;51.436;6.774;2023-10-09T13:26:27;20.90;99.90
20418;DHT22;10368;51.436;6.774;2023-10-09T13:29:01;20.80;99.90
20418;DHT22;10368;51.436;6.774;2023-10-09T13:31:30;21.10;99.90
20418;DHT22;10368;51.436;6.774;2023-10-09T13:34:02;20.90;99.90
20418;DHT22;10368;51.436;6.774;2023-10-09T13:36:30;20.70;99.90
20418;DHT22;10368;51.436;6.774;2023-10-09T13:39:08;20.90;99.90
20418;DHT22;10368;51.436;6.774;2023-10-09T13:41:58;20.70;99.90
20418;DHT22;10368;51.436;6.774;2023-10-09T13:46:59;21.00;99.90
20418;DHT22;10368;51.436;6.774;2023-10-09T13:49:26;21.30;99.90
20418;DHT22;10368;51.436;6.774;2023-10-09T13:51:59;21.20;99.90
20418;DHT22;10368;51.436;6.774;2023-10-09T13:54:26;21.40;99.90
20418;DHT22;10368;51.436;6.774;2023-10-09T13:57:00;21.10;99.90
20418;DHT22;10368;51.436;6.774;2023-10-09T13:59:31;21.30;99.90
20418;DHT22;10368;51.436;6.774;2023-10-09T14:01:58;20.90;99.90
20418;DHT22;10368;51.436;6.774;2023-10-09T14:04:26;20.80;99.90
20418;DHT22;10368;51.436;6.774;2023-10-09T14:06:53;20.80;99.90
20418;DHT22;10368;51.436;6.774;2023-10-09T14:09:28;20.90;99.90
20418;DHT22;10368;51.436;6.774;2023-10-09T14:11:58;20.70;99.90
20418;DHT22;10368;51.436;6.774;2023-10-09T14:14:34;20.80;99.90
20418;DHT22;10368;51.436;6.774;2023-10-09T14:17:06;20.80;99.90
20418;DHT22;10368;51.436;6.774;2023-10-09T14:19:42;21.00;99.90
20418;DHT22;10368;51.436;6.774;2023-10-09T14:22:19;20.90;99.90
20418;DHT22;10368;51.436;6.774;2023-10-09T14:24:48;20.90;99.90
20418;DHT22;10368;51.436;6.774;2023-10-09T14:27:15;20.90;99.90
20418;DHT22;10368;51.436;6.774;2023-10-09T14:29:46;20.80;99.90
20418;DHT22;10368;51.436;6.774;2023-10-09T14:32:14;20.70;99.90
20418;DHT22;10368;51.436;6.774;2023-10-09T14:34:42;20.90;99.90
20418;DHT22;10368;51.436;6.774;2023-10-09T14:37:21;20.80;99.90
20418;DHT22;10368;51.436;6.774;2023-10-09T14:39:48;20.70;99.90
20418;DHT22;10368;51.436;6.774;2023-10-09T14:42:16;20.60;99.90
20418;DHT22;10368;51.436;6.774;2023-10-09T14:44:44;20.60;99.90
20418;DHT22;10368;51.436;6.774;2023-10-09T14:47:14;20.70;99.90
20418;DHT22;10368;51.436;6.774;2023-10-09T14:49:41;20.50;99.90
20418;DHT22;10368;51.436;6.774;2023-10-09T14:52:14;20.70;99.90
20418;DHT22;10368;51.436;6.774;2023-10-09T14:54:46;20.70;99.90
20418;DHT22;10368;51.436;6.774;2023-10-09T14:57:14;20.50;99.90
20418;DHT22;10368;51.436;6.774;2023-10-09T14:59:41;20.40;99.90
20418;DHT22;10368;51.436;6.774;2023-10-09T15:02:13;20.40;99.90
20418;DHT22;10368;51.436;6.774;2023-10-09T15:04:40;20.50;99.90
20418;DHT22;10368;51.436;6.774;2023-10-09T15:07:07;20.40;99.90
20418;DHT22;10368;51.436;6.774;2023-10-09T15:09:35;20.30;99.90
20418;DHT22;10368;51.436;6.774;2023-10-09T15:12:04;20.30;99.90
20418;DHT22;10368;51.436;6.774;2023-10-09T15:14:34;20.40;99.90
20418;DHT22;10368;51.436;6.774;2023-10-09T15:17:01;20.30;99.90
20418;DHT22;10368;51.436;6.774;2023-10-09T15:19:29;20.20;99.90
20418;DHT22;10368;51.436;6.774;2023-10-09T15:21:57;20.20;99.90
20418;DHT22;10368;51.436;6.774;2023-10-09T15:24:27;20.20;99.90
20418;DHT22;10368;51.436;6.774;2023-10-09T15:26:55;20.10;99.90
20418;DHT22;10368;51.436;6.774;2023-10-09T15:29:26;20.30;99.90
20418;DHT22;10368;51.436;6.774;2023-10-09T15:31:58;20.20;99.90
20418;DHT22;10368;51.436;6.774;2023-10-09T15:34:32;20.30;99.90
20418;DHT22;10368;51.436;6.774;2023-10-09T15:37:05;20.10;99.90
20418;DHT22;10368;51.436;6.774;2023-10-09T15:39:34;20.10;99.90
20418;DHT22;10368;51.436;6.774;2023-10-09T15:42:02;20.20;99.90
20418;DHT22;10368;51.436;6.774;2023-10-09T15:44:34;20.20;99.90
20418;DHT22;10368;51.436;6.774;2023-10-09T15:47:04;20.30;99.90
20418;DHT22;10368;51.436;6.774;2023-10-09T15:49:35;20.40;99.90
20418;DHT22;10368;51.436;6.774;2023-10-09T15:52:08;20.30;99.90
20418;DHT22;10368;51.436;6.774;2023-10-09T15:54:35;20.10;99.90
20418;DHT22;10368;51.436;6.774;2023-10-09T15:57:03;20.10;99.90
20418;DHT22;10368;51.436;6.774;2023-10-09T15:59:39;20.30;99.90
20418;DHT22;10368;51.436;6.774;2023-10-09T16:02:06;20.10;99.90
20418;DHT22;10368;51.436;6.774;2023-10-09T16:04:33;20.20;99.90
20418;DHT22;10368;51.436;6.774;2023-10-09T16:07:01;20.10;99.90
20418;DHT22;10368;51.436;6.774;2023-10-09T16:09:28;20.00;99.90
20418;DHT22;10368;51.436;6.774;2023-10-09T16:11:56;20.10;99.90
20418;DHT22;10368;51.436;6.774;2023-10-09T16:14:23;20.00;99.90
20418;DHT22;10368;51.436;6.774;2023-10-09T16:16:50;19.90;99.90
20418;DHT22;10368;51.436;6.774;2023-10-09T16:19:17;20.00;99.90
20418;DHT22;10368;51.436;6.774;2023-10-09T16:21:44;19.90;99.90
20418;DHT22;10368;51.436;6.774;2023-10-09T16:24:11;19.90;99.90
20418;DHT22;10368;51.436;6.774;2023-10-09T16:26:39;20.10;99.90
20418;DHT22;10368;51.436;6.774;2023-10-09T16:29:09;19.90;99.90
20418;DHT22;10368;51.436;6.774;2023-10-09T16:31:37;20.00;99.90
20418;DHT22;10368;51.436;6.774;2023-10-09T16:34:07;20.10;99.90
20418;DHT22;10368;51.436;6.774;2023-10-09T16:36:35;19.80;99.90
20418;DHT22;10368;51.436;6.774;2023-10-09T16:39:03;19.80;99.90
20418;DHT22;10368;51.436;6.774;2023-10-09T16:41:30;19.80;99.90
20418;DHT22;10368;51.436;6.774;2023-10-09T16:44:07;20.00;99.90
20418;DHT22;10368;51.436;6.774;2023-10-09T16:46:37;19.80;99.90